sensor_id;sensor_type;location;lat;lon;timestamp;temperature;humidity
25825;DHT22;13658;44.534;18.694;2023-05-10T00:02:14;11.80;99.90
25825;DHT22;13658;44.534;18.694;2023-05-10T00:04:40;11.70;99.90
25825;DHT22;13658;44.534;18.694;2023-05-10T00:07:06;11.70;99.90
25825;DHT22;13658;44.534;18.694;2023-05-10T00:09:32;11.50;99.90
25825;DHT22;13658;44.534;18.694;2023-05-10T00:11:58;11.50;99.90
25825;DHT22;13658;44.534;18.694;2023-05-10T00:14:24;11.50;99.90
25825;DHT22;13658;44.534;18.694;2023-05-10T00:16:50;11.50;99.90
25825;DHT22;13658;44.534;18.694;2023-05-10T00:19:16;11.50;99.90
25825;DHT22;13658;44.534;18.694;2023-05-10T00:21:42;11.50;99.90
25825;DHT22;13658;44.534;18.694;2023-05-10T00:24:08;11.50;99.90
25825;DHT22;13658;44.534;18.694;2023-05-10T00:26:34;11.40;99.90
25825;DHT22;13658;44.534;18.694;2023-05-10T00:29:00;11.30;99.90
25825;DHT22;13658;44.534;18.694;2023-05-10T00:31:26;11.30;99.90
25825;DHT22;13658;44.534;18.694;2023-05-10T00:33:52;11.20;99.90
25825;DHT22;13658;44.534;18.694;2023-05-10T00:36:18;11.20;99.90
25825;DHT22;13658;44.534;18.694;2023-05-10T00:38:44;11.20;99.90
25825;DHT22;13658;44.534;18.694;2023-05-10T00:41:10;11.20;99.90
25825;DHT22;13658;44.534;18.694;2023-05-10T00:43:38;11.10;99.90
25825;DHT22;13658;44.534;18.694;2023-05-10T00:46:04;11.00;99.90
25825;DHT22;13658;44.534;18.694;2023-05-10T00:48:31;11.10;99.90
25825;DHT22;13658;44.534;18.694;2023-05-10T00:50:57;11.00;99.90
25825;DHT22;13658;44.534;18.694;2023-05-10T00:53:24;11.00;99.90
25825;DHT22;13658;44.534;18.694;2023-05-10T00:55:50;10.90;99.90
25825;DHT22;13658;44.534;18.694;2023-05-10T00:58:17;10.80;99.90
25825;DHT22;13658;44.534;18.694;2023-05-10T01:00:43;10.70;99.90
25825;DHT22;13658;44.534;18.694;2023-05-10T01:03:11;10.60;99.90
25825;DHT22;13658;44.534;18.694;2023-05-10T01:05:38;10.60;99.90
25825;DHT22;13658;44.534;18.694;2023-05-10T01:08:04;10.60;99.90
25825;DHT22;13658;44.534;18.694;2023-05-10T01:10:31;10.50;99.90
25825;DHT22;13658;44.534;18.694;2023-05-10T01:12:58;10.50;99.90
25825;DHT22;13658;44.534;18.694;2023-05-10T01:15:25;10.50;99.90
25825;DHT22;13658;44.534;18.694;2023-05-10T01:17:51;10.50;99.90
25825;DHT22;13658;44.534;18.694;2023-05-10T01:20:18;10.50;99.90
25825;DHT22;13658;44.534;18.694;2023-05-10T01:22:58;10.40;99.90
25825;DHT22;13658;44.534;18.694;2023-05-10T01:31:06;10.20;99.90
25825;DHT22;13658;44.534;18.694;2023-05-10T01:41:44;10.20;99.90
25825;DHT22;13658;44.534;18.694;2023-05-10T01:49:36;10.10;99.90
25825;DHT22;13658;44.534;18.694;2023-05-10T01:52:14;10.20;99.90
25825;DHT22;13658;44.534;18.694;2023-05-10T01:55:04;10.10;99.90
25825;DHT22;13658;44.534;18.694;2023-05-10T01:57:34;10.00;99.90
25825;DHT22;13658;44.534;18.694;2023-05-10T02:00:02;9.90;99.90
25825;DHT22;13658;44.534;18.694;2023-05-10T02:02:44;9.80;99.90
25825;DHT22;13658;44.534;18.694;2023-05-10T02:05:13;9.80;99.90
25825;DHT22;13658;44.534;18.694;2023-05-10T02:07:41;9.80;99.90
25825;DHT22;13658;44.534;18.694;2023-05-10T02:10:09;9.80;99.90
25825;DHT22;13658;44.534;18.694;2023-05-10T02:12:37;9.80;99.90
25825;DHT22;13658;44.534;18.694;2023-05-10T02:15:06;9.80;99.90
25825;DHT22;13658;44.534;18.694;2023-05-10T02:17:33;9.80;99.90
25825;DHT22;13658;44.534;18.694;2023-05-10T02:20:01;9.80;99.90
25825;DHT22;13658;44.534;18.694;2023-05-10T02:22:30;9.70;99.90
25825;DHT22;13658;44.534;18.694;2023-05-10T02:24:58;9.80;99.90
25825;DHT22;13658;44.534;18.694;2023-05-10T02:27:28;9.70;99.90
25825;DHT22;13658;44.534;18.694;2023-05-10T02:29:55;9.70;99.90
25825;DHT22;13658;44.534;18.694;2023-05-10T02:32:22;9.70;99.90
25825;DHT22;13658;44.534;18.694;2023-05-10T02:34:51;9.70;99.90
25825;DHT22;13658;44.534;18.694;2023-05-10T02:37:22;9.70;99.90
25825;DHT22;13658;44.534;18.694;2023-05-10T02:39:49;9.60;99.90
25825;DHT22;13658;44.534;18.694;2023-05-10T02:42:23;9.50;99.90
25825;DHT22;13658;44.534;18.694;2023-05-10T02:44:56;9.60;99.90
25825;DHT22;13658;44.534;18.694;2023-05-10T02:47:22;9.50;99.90
25825;DHT22;13658;44.534;18.694;2023-05-10T02:49:48;9.50;99.90
25825;DHT22;13658;44.534;18.694;2023-05-10T02:52:19;9.50;99.90
25825;DHT22;13658;44.534;18.694;2023-05-10T02:54:50;9.40;99.90
25825;DHT22;13658;44.534;18.694;2023-05-10T02:57:28;9.40;99.90
25825;DHT22;13658;44.534;18.694;2023-05-10T02:59:55;9.40;99.90
25825;DHT22;13658;44.534;18.694;2023-05-10T03:02:21;9.40;99.90
25825;DHT22;13658;44.534;18.694;2023-05-10T03:04:47;9.40;99.90
25825;DHT22;13658;44.534;18.694;2023-05-10T03:07:13;9.40;99.90
25825;DHT22;13658;44.534;18.694;2023-05-10T03:09:40;9.40;99.90
25825;DHT22;13658;44.534;18.694;2023-05-10T03:12:58;9.40;99.90
25825;DHT22;13658;44.534;18.694;2023-05-10T03:15:18;9.30;99.90
25825;DHT22;13658;44.534;18.694;2023-05-10T03:18:01;9.30;99.90
25825;DHT22;13658;44.534;18.694;2023-05-10T03:20:49;9.20;99.90
25825;DHT22;13658;44.534;18.694;2023-05-10T03:23:22;9.20;99.90
25825;DHT22;13658;44.534;18.694;2023-05-10T03:25:49;9.10;99.90
25825;DHT22;13658;44.534;18.694;2023-05-10T03:28:17;9.00;99.90
25825;DHT22;13658;44.534;18.694;2023-05-10T03:30:44;9.00;99.90
25825;DHT22;13658;44.534;18.694;2023-05-10T03:33:12;9.00;99.90
25825;DHT22;13658;44.534;18.694;2023-05-10T03:35:42;9.00;99.90
25825;DHT22;13658;44.534;18.694;2023-05-10T03:38:10;9.00;99.90
25825;DHT22;13658;44.534;18.694;2023-05-10T03:40:36;9.00;99.90
25825;DHT22;13658;44.534;18.694;2023-05-10T03:43:02;9.00;99.90
25825;DHT22;13658;44.534;18.694;2023-05-10T03:45:28;9.00;99.90
25825;DHT22;13658;44.534;18.694;2023-05-10T03:47:54;9.00;99.90
25825;DHT22;13658;44.534;18.694;2023-05-10T03:50:21;9.10;99.90
25825;DHT22;13658;44.534;18.694;2023-05-10T03:52:47;9.00;99.90
25825;DHT22;13658;44.534;18.694;2023-05-10T03:55:13;9.10;99.90
25825;DHT22;13658;44.534;18.694;2023-05-10T03:57:39;9.10;99.90
25825;DHT22;13658;44.534;18.694;2023-05-10T04:00:06;9.10;99.90
25825;DHT22;13658;44.534;18.694;2023-05-10T04:02:40;9.20;99.90
25825;DHT22;13658;44.534;18.694;2023-05-10T04:05:09;9.20;99.90
25825;DHT22;13658;44.534;18.694;2023-05-10T04:07:35;9.20;99.90
25825;DHT22;13658;44.534;18.694;2023-05-10T04:10:01;9.20;99.90
25825;DHT22;13658;44.534;18.694;2023-05-10T04:12:27;9.20;99.90
25825;DHT22;13658;44.534;18.694;2023-05-10T04:14:53;9.30;99.90
25825;DHT22;13658;44.534;18.694;2023-05-10T04:17:19;9.30;99.90
25825;DHT22;13658;44.534;18.694;2023-05-10T04:19:45;9.30;99.90
25825;DHT22;13658;44.534;18.694;2023-05-10T04:22:11;9.30;99.90
25825;DHT22;13658;44.534;18.694;2023-05-10T04:24:37;9.40;99.90
25825;DHT22;13658;44.534;18.694;2023-05-10T04:27:03;9.40;99.90
25825;DHT22;13658;44.534;18.694;2023-05-10T04:29:29;9.60;99.90
25825;DHT22;13658;44.534;18.694;2023-05-10T04:31:55;9.90;99.90
25825;DHT22;13658;44.534;18.694;2023-05-10T04:34:22;10.20;99.90
25825;DHT22;13658;44.534;18.694;2023-05-10T04:36:48;10.50;99.90
25825;DHT22;13658;44.534;18.694;2023-05-10T04:39:14;10.70;99.90
25825;DHT22;13658;44.534;18.694;2023-05-10T04:41:40;11.00;99.90
25825;DHT22;13658;44.534;18.694;2023-05-10T04:44:06;11.20;99.90
25825;DHT22;13658;44.534;18.694;2023-05-10T04:46:32;11.40;99.90
25825;DHT22;13658;44.534;18.694;2023-05-10T04:48:58;11.50;99.90
25825;DHT22;13658;44.534;18.694;2023-05-10T04:51:24;11.80;99.90
25825;DHT22;13658;44.534;18.694;2023-05-10T04:53:50;11.90;99.90
25825;DHT22;13658;44.534;18.694;2023-05-10T04:56:16;12.20;99.90
25825;DHT22;13658;44.534;18.694;2023-05-10T04:58:42;12.30;99.90
25825;DHT22;13658;44.534;18.694;2023-05-10T05:01:09;12.50;99.90
25825;DHT22;13658;44.534;18.694;2023-05-10T05:03:36;12.80;99.90
25825;DHT22;13658;44.534;18.694;2023-05-10T05:06:03;12.70;99.90
25825;DHT22;13658;44.534;18.694;2023-05-10T05:08:29;13.00;99.90
25825;DHT22;13658;44.534;18.694;2023-05-10T05:10:55;13.40;99.90
25825;DHT22;13658;44.534;18.694;2023-05-10T05:13:21;13.60;99.90
25825;DHT22;13658;44.534;18.694;2023-05-10T05:15:47;13.70;99.90
25825;DHT22;13658;44.534;18.694;2023-05-10T05:18:13;13.90;99.90
25825;DHT22;13658;44.534;18.694;2023-05-10T05:20:39;14.20;99.90
25825;DHT22;13658;44.534;18.694;2023-05-10T05:23:05;14.30;99.90
25825;DHT22;13658;44.534;18.694;2023-05-10T05:25:31;14.60;99.90
25825;DHT22;13658;44.534;18.694;2023-05-10T05:27:57;14.90;99.90
25825;DHT22;13658;44.534;18.694;2023-05-10T05:30:23;15.20;99.90
25825;DHT22;13658;44.534;18.694;2023-05-10T05:32:49;15.30;99.90
25825;DHT22;13658;44.534;18.694;2023-05-10T05:35:15;15.50;99.90
25825;DHT22;13658;44.534;18.694;2023-05-10T05:37:41;15.70;99.90
25825;DHT22;13658;44.534;18.694;2023-05-10T05:40:08;16.10;99.90
25825;DHT22;13658;44.534;18.694;2023-05-10T05:42:34;16.30;99.90
25825;DHT22;13658;44.534;18.694;2023-05-10T05:45:00;16.70;99.90
25825;DHT22;13658;44.534;18.694;2023-05-10T05:47:26;17.10;99.90
25825;DHT22;13658;44.534;18.694;2023-05-10T05:49:52;17.20;99.90
25825;DHT22;13658;44.534;18.694;2023-05-10T05:52:18;17.40;99.90
25825;DHT22;13658;44.534;18.694;2023-05-10T05:54:44;17.50;99.90
25825;DHT22;13658;44.534;18.694;2023-05-10T05:57:10;18.10;99.90
25825;DHT22;13658;44.534;18.694;2023-05-10T05:59:36;18.30;99.90
25825;DHT22;13658;44.534;18.694;2023-05-10T06:02:08;18.80;99.90
25825;DHT22;13658;44.534;18.694;2023-05-10T06:04:34;18.90;99.90
25825;DHT22;13658;44.534;18.694;2023-05-10T06:07:00;19.30;99.90
25825;DHT22;13658;44.534;18.694;2023-05-10T06:09:26;19.60;99.90
25825;DHT22;13658;44.534;18.694;2023-05-10T06:11:52;19.30;99.90
25825;DHT22;13658;44.534;18.694;2023-05-10T06:14:20;19.80;99.90
25825;DHT22;13658;44.534;18.694;2023-05-10T06:16:46;20.20;99.90
25825;DHT22;13658;44.534;18.694;2023-05-10T06:19:12;20.40;99.90
25825;DHT22;13658;44.534;18.694;2023-05-10T06:21:38;20.90;99.90
25825;DHT22;13658;44.534;18.694;2023-05-10T06:24:05;21.20;99.90
25825;DHT22;13658;44.534;18.694;2023-05-10T06:26:32;21.20;99.90
25825;DHT22;13658;44.534;18.694;2023-05-10T06:28:58;21.30;99.90
25825;DHT22;13658;44.534;18.694;2023-05-10T06:31:24;21.20;99.90
25825;DHT22;13658;44.534;18.694;2023-05-10T06:33:51;21.30;99.90
25825;DHT22;13658;44.534;18.694;2023-05-10T06:36:17;21.80;99.90
25825;DHT22;13658;44.534;18.694;2023-05-10T06:38:43;22.50;99.90
25825;DHT22;13658;44.534;18.694;2023-05-10T06:41:09;22.00;99.90
25825;DHT22;13658;44.534;18.694;2023-05-10T06:43:35;22.20;99.90
25825;DHT22;13658;44.534;18.694;2023-05-10T06:46:01;22.40;99.90
25825;DHT22;13658;44.534;18.694;2023-05-10T06:48:27;22.20;99.90
25825;DHT22;13658;44.534;18.694;2023-05-10T06:50:53;22.70;99.90
25825;DHT22;13658;44.534;18.694;2023-05-10T06:53:19;22.70;99.90
25825;DHT22;13658;44.534;18.694;2023-05-10T06:55:45;23.20;99.90
25825;DHT22;13658;44.534;18.694;2023-05-10T06:58:11;23.50;99.90
25825;DHT22;13658;44.534;18.694;2023-05-10T07:00:37;22.90;99.90
25825;DHT22;13658;44.534;18.694;2023-05-10T07:03:06;22.90;99.90
25825;DHT22;13658;44.534;18.694;2023-05-10T07:05:32;23.40;99.90
25825;DHT22;13658;44.534;18.694;2023-05-10T07:07:58;23.80;99.90
25825;DHT22;13658;44.534;18.694;2023-05-10T07:10:24;23.80;99.90
25825;DHT22;13658;44.534;18.694;2023-05-10T07:12:50;24.40;99.90
25825;DHT22;13658;44.534;18.694;2023-05-10T07:15:16;24.00;99.90
25825;DHT22;13658;44.534;18.694;2023-05-10T07:17:43;23.80;99.90
25825;DHT22;13658;44.534;18.694;2023-05-10T07:20:09;24.50;99.90
25825;DHT22;13658;44.534;18.694;2023-05-10T07:22:35;25.30;99.90
25825;DHT22;13658;44.534;18.694;2023-05-10T07:25:01;24.70;99.90
25825;DHT22;13658;44.534;18.694;2023-05-10T07:27:28;24.20;99.90
25825;DHT22;13658;44.534;18.694;2023-05-10T07:29:54;24.20;99.90
25825;DHT22;13658;44.534;18.694;2023-05-10T07:32:20;24.20;99.90
25825;DHT22;13658;44.534;18.694;2023-05-10T07:34:47;25.00;99.90
25825;DHT22;13658;44.534;18.694;2023-05-10T07:37:13;26.00;99.90
25825;DHT22;13658;44.534;18.694;2023-05-10T07:39:39;25.20;99.90
25825;DHT22;13658;44.534;18.694;2023-05-10T07:42:05;24.00;99.90
25825;DHT22;13658;44.534;18.694;2023-05-10T07:44:31;24.00;99.90
25825;DHT22;13658;44.534;18.694;2023-05-10T07:46:57;24.90;99.90
25825;DHT22;13658;44.534;18.694;2023-05-10T07:49:26;25.20;99.90
25825;DHT22;13658;44.534;18.694;2023-05-10T07:51:52;25.70;99.90
25825;DHT22;13658;44.534;18.694;2023-05-10T07:54:18;26.80;99.90
25825;DHT22;13658;44.534;18.694;2023-05-10T07:56:44;26.90;99.90
25825;DHT22;13658;44.534;18.694;2023-05-10T07:59:17;28.00;99.90
25825;DHT22;13658;44.534;18.694;2023-05-10T08:01:43;28.70;99.90
25825;DHT22;13658;44.534;18.694;2023-05-10T08:04:09;27.30;99.90
25825;DHT22;13658;44.534;18.694;2023-05-10T08:06:35;26.30;99.90
25825;DHT22;13658;44.534;18.694;2023-05-10T08:09:01;26.30;99.90
25825;DHT22;13658;44.534;18.694;2023-05-10T08:11:28;25.60;99.90
25825;DHT22;13658;44.534;18.694;2023-05-10T08:13:54;25.80;99.90
25825;DHT22;13658;44.534;18.694;2023-05-10T08:16:20;27.00;99.90
25825;DHT22;13658;44.534;18.694;2023-05-10T08:18:47;27.50;99.90
25825;DHT22;13658;44.534;18.694;2023-05-10T08:21:15;27.90;99.90
25825;DHT22;13658;44.534;18.694;2023-05-10T08:23:41;28.50;99.90
25825;DHT22;13658;44.534;18.694;2023-05-10T08:26:09;29.50;99.90
25825;DHT22;13658;44.534;18.694;2023-05-10T08:28:35;28.70;99.90
25825;DHT22;13658;44.534;18.694;2023-05-10T08:31:01;29.00;99.90
25825;DHT22;13658;44.534;18.694;2023-05-10T08:33:27;27.20;99.90
25825;DHT22;13658;44.534;18.694;2023-05-10T08:35:53;25.70;99.90
25825;DHT22;13658;44.534;18.694;2023-05-10T08:38:19;25.70;99.90
25825;DHT22;13658;44.534;18.694;2023-05-10T08:40:45;25.60;99.90
25825;DHT22;13658;44.534;18.694;2023-05-10T08:43:13;25.80;99.90
25825;DHT22;13658;44.534;18.694;2023-05-10T08:45:42;25.40;99.90
25825;DHT22;13658;44.534;18.694;2023-05-10T08:48:11;25.20;99.90
25825;DHT22;13658;44.534;18.694;2023-05-10T08:50:39;25.20;99.90
25825;DHT22;13658;44.534;18.694;2023-05-10T08:53:09;24.80;99.90
25825;DHT22;13658;44.534;18.694;2023-05-10T08:55:36;24.90;99.90
25825;DHT22;13658;44.534;18.694;2023-05-10T08:58:04;24.90;99.90
25825;DHT22;13658;44.534;18.694;2023-05-10T09:00:31;24.70;99.90
25825;DHT22;13658;44.534;18.694;2023-05-10T09:03:02;24.40;99.90
25825;DHT22;13658;44.534;18.694;2023-05-10T09:05:28;24.40;99.90
25825;DHT22;13658;44.534;18.694;2023-05-10T09:07:54;24.10;99.90
25825;DHT22;13658;44.534;18.694;2023-05-10T09:10:20;23.70;99.90
25825;DHT22;13658;44.534;18.694;2023-05-10T09:12:48;23.80;99.90
25825;DHT22;13658;44.534;18.694;2023-05-10T09:15:17;23.80;99.90
25825;DHT22;13658;44.534;18.694;2023-05-10T09:17:45;23.60;99.90
25825;DHT22;13658;44.534;18.694;2023-05-10T09:20:12;23.00;99.90
25825;DHT22;13658;44.534;18.694;2023-05-10T09:22:38;22.90;99.90
25825;DHT22;13658;44.534;18.694;2023-05-10T09:25:14;22.30;99.90
25825;DHT22;13658;44.534;18.694;2023-05-10T09:27:45;22.10;99.90
25825;DHT22;13658;44.534;18.694;2023-05-10T09:30:29;22.20;99.90
25825;DHT22;13658;44.534;18.694;2023-05-10T09:32:57;21.90;99.90
25825;DHT22;13658;44.534;18.694;2023-05-10T09:35:25;22.00;99.90
25825;DHT22;13658;44.534;18.694;2023-05-10T09:37:56;22.00;99.90
25825;DHT22;13658;44.534;18.694;2023-05-10T09:40:26;22.30;99.90
25825;DHT22;13658;44.534;18.694;2023-05-10T09:43:06;22.40;99.90
25825;DHT22;13658;44.534;18.694;2023-05-10T09:45:34;22.80;99.90
25825;DHT22;13658;44.534;18.694;2023-05-10T09:48:02;23.30;99.90
25825;DHT22;13658;44.534;18.694;2023-05-10T09:50:29;23.40;99.90
25825;DHT22;13658;44.534;18.694;2023-05-10T09:52:56;23.80;99.90
25825;DHT22;13658;44.534;18.694;2023-05-10T09:55:37;24.50;99.90
25825;DHT22;13658;44.534;18.694;2023-05-10T09:58:04;24.80;99.90
25825;DHT22;13658;44.534;18.694;2023-05-10T10:00:36;24.70;99.90
25825;DHT22;13658;44.534;18.694;2023-05-10T10:03:03;25.00;99.90
25825;DHT22;13658;44.534;18.694;2023-05-10T10:05:30;24.20;99.90
25825;DHT22;13658;44.534;18.694;2023-05-10T10:08:02;24.80;99.90
25825;DHT22;13658;44.534;18.694;2023-05-10T10:10:29;24.80;99.90
25825;DHT22;13658;44.534;18.694;2023-05-10T10:12:56;25.10;99.90
25825;DHT22;13658;44.534;18.694;2023-05-10T10:15:23;25.30;99.90
25825;DHT22;13658;44.534;18.694;2023-05-10T10:17:50;25.70;99.90
25825;DHT22;13658;44.534;18.694;2023-05-10T10:20:18;25.60;99.90
25825;DHT22;13658;44.534;18.694;2023-05-10T10:22:44;26.00;99.90
25825;DHT22;13658;44.534;18.694;2023-05-10T10:25:16;26.00;99.90
25825;DHT22;13658;44.534;18.694;2023-05-10T10:35:34;24.60;99.90
25825;DHT22;13658;44.534;18.694;2023-05-10T10:38:00;24.00;99.90
25825;DHT22;13658;44.534;18.694;2023-05-10T10:40:28;24.00;99.90
25825;DHT22;13658;44.534;18.694;2023-05-10T10:42:55;23.80;99.90
25825;DHT22;13658;44.534;18.694;2023-05-10T10:45:22;23.30;99.90
25825;DHT22;13658;44.534;18.694;2023-05-10T10:47:53;22.80;99.90
25825;DHT22;13658;44.534;18.694;2023-05-10T10:50:19;22.40;99.90
25825;DHT22;13658;44.534;18.694;2023-05-10T10:52:45;22.20;99.90
25825;DHT22;13658;44.534;18.694;2023-05-10T10:55:13;22.30;99.90
25825;DHT22;13658;44.534;18.694;2023-05-10T10:57:55;22.20;99.90
25825;DHT22;13658;44.534;18.694;2023-05-10T11:00:37;22.30;99.90
25825;DHT22;13658;44.534;18.694;2023-05-10T11:03:11;22.20;99.90
25825;DHT22;13658;44.534;18.694;2023-05-10T11:05:50;22.50;99.90
25825;DHT22;13658;44.534;18.694;2023-05-10T11:08:19;22.50;99.90
25825;DHT22;13658;44.534;18.694;2023-05-10T11:13:48;22.70;99.90
25825;DHT22;13658;44.534;18.694;2023-05-10T11:16:22;22.50;99.90
25825;DHT22;13658;44.534;18.694;2023-05-10T11:19:02;22.20;99.90
25825;DHT22;13658;44.534;18.694;2023-05-10T11:21:30;21.90;99.90
25825;DHT22;13658;44.534;18.694;2023-05-10T11:23:58;21.70;99.90
25825;DHT22;13658;44.534;18.694;2023-05-10T11:26:25;21.80;99.90
25825;DHT22;13658;44.534;18.694;2023-05-10T11:28:55;21.70;99.90
25825;DHT22;13658;44.534;18.694;2023-05-10T11:31:21;21.60;99.90
25825;DHT22;13658;44.534;18.694;2023-05-10T11:33:51;21.50;99.90
25825;DHT22;13658;44.534;18.694;2023-05-10T11:36:20;21.50;99.90
25825;DHT22;13658;44.534;18.694;2023-05-10T11:38:47;21.40;99.90
25825;DHT22;13658;44.534;18.694;2023-05-10T11:41:14;21.50;99.90
25825;DHT22;13658;44.534;18.694;2023-05-10T11:43:41;21.50;99.90
25825;DHT22;13658;44.534;18.694;2023-05-10T11:46:12;21.40;99.90
25825;DHT22;13658;44.534;18.694;2023-05-10T11:48:39;21.60;99.90
25825;DHT22;13658;44.534;18.694;2023-05-10T11:51:09;21.70;99.90
25825;DHT22;13658;44.534;18.694;2023-05-10T11:53:36;21.80;99.90
25825;DHT22;13658;44.534;18.694;2023-05-10T11:56:10;21.90;99.90
25825;DHT22;13658;44.534;18.694;2023-05-10T11:58:39;22.00;99.90
25825;DHT22;13658;44.534;18.694;2023-05-10T12:01:07;22.10;99.90
25825;DHT22;13658;44.534;18.694;2023-05-10T12:03:34;21.90;99.90
25825;DHT22;13658;44.534;18.694;2023-05-10T12:06:01;22.10;99.90
25825;DHT22;13658;44.534;18.694;2023-05-10T12:08:29;22.50;99.90
25825;DHT22;13658;44.534;18.694;2023-05-10T12:11:06;22.80;99.90
25825;DHT22;13658;44.534;18.694;2023-05-10T12:13:38;22.90;99.90
25825;DHT22;13658;44.534;18.694;2023-05-10T12:16:23;22.90;99.90
25825;DHT22;13658;44.534;18.694;2023-05-10T12:18:51;22.90;99.90
25825;DHT22;13658;44.534;18.694;2023-05-10T12:21:18;22.80;99.90
25825;DHT22;13658;44.534;18.694;2023-05-10T12:23:56;22.80;99.90
25825;DHT22;13658;44.534;18.694;2023-05-10T12:26:25;22.70;99.90
25825;DHT22;13658;44.534;18.694;2023-05-10T12:28:54;22.70;99.90
25825;DHT22;13658;44.534;18.694;2023-05-10T12:31:20;22.60;99.90
25825;DHT22;13658;44.534;18.694;2023-05-10T12:33:47;22.70;99.90
25825;DHT22;13658;44.534;18.694;2023-05-10T12:36:16;22.40;99.90
25825;DHT22;13658;44.534;18.694;2023-05-10T12:38:45;22.20;99.90
25825;DHT22;13658;44.534;18.694;2023-05-10T12:41:18;22.30;99.90
25825;DHT22;13658;44.534;18.694;2023-05-10T12:43:44;22.40;99.90
25825;DHT22;13658;44.534;18.694;2023-05-10T12:46:15;22.40;99.90
25825;DHT22;13658;44.534;18.694;2023-05-10T12:48:43;22.20;99.90
25825;DHT22;13658;44.534;18.694;2023-05-10T12:51:09;22.00;99.90
25825;DHT22;13658;44.534;18.694;2023-05-10T12:53:38;21.50;99.90
25825;DHT22;13658;44.534;18.694;2023-05-10T12:56:04;21.60;99.90
25825;DHT22;13658;44.534;18.694;2023-05-10T12:58:31;21.60;99.90
25825;DHT22;13658;44.534;18.694;2023-05-10T13:00:58;21.70;99.90
25825;DHT22;13658;44.534;18.694;2023-05-10T13:03:24;21.90;99.90
25825;DHT22;13658;44.534;18.694;2023-05-10T13:05:50;21.70;99.90
25825;DHT22;13658;44.534;18.694;2023-05-10T13:08:16;21.70;99.90
25825;DHT22;13658;44.534;18.694;2023-05-10T13:10:42;21.70;99.90
25825;DHT22;13658;44.534;18.694;2023-05-10T13:13:09;21.90;99.90
25825;DHT22;13658;44.534;18.694;2023-05-10T13:15:35;21.90;99.90
25825;DHT22;13658;44.534;18.694;2023-05-10T13:18:01;21.80;99.90
25825;DHT22;13658;44.534;18.694;2023-05-10T13:20:27;22.00;99.90
25825;DHT22;13658;44.534;18.694;2023-05-10T13:22:53;21.90;99.90
25825;DHT22;13658;44.534;18.694;2023-05-10T13:25:19;22.10;99.90
25825;DHT22;13658;44.534;18.694;2023-05-10T13:27:45;22.10;99.90
25825;DHT22;13658;44.534;18.694;2023-05-10T13:30:12;22.20;99.90
25825;DHT22;13658;44.534;18.694;2023-05-10T13:32:38;22.00;99.90
25825;DHT22;13658;44.534;18.694;2023-05-10T13:35:05;21.90;99.90
25825;DHT22;13658;44.534;18.694;2023-05-10T13:37:31;21.90;99.90
25825;DHT22;13658;44.534;18.694;2023-05-10T13:40:01;21.90;99.90
25825;DHT22;13658;44.534;18.694;2023-05-10T13:42:27;21.90;99.90
25825;DHT22;13658;44.534;18.694;2023-05-10T13:44:53;21.90;99.90
25825;DHT22;13658;44.534;18.694;2023-05-10T13:47:19;21.90;99.90
25825;DHT22;13658;44.534;18.694;2023-05-10T13:49:47;22.00;99.90
25825;DHT22;13658;44.534;18.694;2023-05-10T13:52:13;21.80;99.90
25825;DHT22;13658;44.534;18.694;2023-05-10T13:54:39;21.90;99.90
25825;DHT22;13658;44.534;18.694;2023-05-10T13:57:05;21.90;99.90
25825;DHT22;13658;44.534;18.694;2023-05-10T13:59:32;21.80;99.90
25825;DHT22;13658;44.534;18.694;2023-05-10T14:02:00;21.80;99.90
25825;DHT22;13658;44.534;18.694;2023-05-10T14:04:29;21.70;99.90
25825;DHT22;13658;44.534;18.694;2023-05-10T14:06:56;21.80;99.90
25825;DHT22;13658;44.534;18.694;2023-05-10T14:09:22;21.70;99.90
25825;DHT22;13658;44.534;18.694;2023-05-10T14:11:48;21.40;99.90
25825;DHT22;13658;44.534;18.694;2023-05-10T14:14:14;21.60;99.90
25825;DHT22;13658;44.534;18.694;2023-05-10T14:16:44;21.50;99.90
25825;DHT22;13658;44.534;18.694;2023-05-10T14:19:10;21.40;99.90
25825;DHT22;13658;44.534;18.694;2023-05-10T14:21:37;21.30;99.90
25825;DHT22;13658;44.534;18.694;2023-05-10T14:24:03;21.50;99.90
25825;DHT22;13658;44.534;18.694;2023-05-10T14:26:29;21.40;99.90
25825;DHT22;13658;44.534;18.694;2023-05-10T14:28:55;21.30;99.90
25825;DHT22;13658;44.534;18.694;2023-05-10T14:31:21;21.40;99.90
25825;DHT22;13658;44.534;18.694;2023-05-10T14:33:48;21.30;99.90
25825;DHT22;13658;44.534;18.694;2023-05-10T14:36:14;21.30;99.90
25825;DHT22;13658;44.534;18.694;2023-05-10T14:38:40;21.30;99.90
25825;DHT22;13658;44.534;18.694;2023-05-10T14:41:07;21.20;99.90
25825;DHT22;13658;44.534;18.694;2023-05-10T14:43:33;21.40;99.90
25825;DHT22;13658;44.534;18.694;2023-05-10T14:45:59;21.50;99.90
25825;DHT22;13658;44.534;18.694;2023-05-10T14:48:25;21.60;99.90
25825;DHT22;13658;44.534;18.694;2023-05-10T14:50:51;21.60;99.90
25825;DHT22;13658;44.534;18.694;2023-05-10T14:53:18;21.40;99.90
25825;DHT22;13658;44.534;18.694;2023-05-10T14:55:44;21.30;99.90
25825;DHT22;13658;44.534;18.694;2023-05-10T14:58:10;21.30;99.90
25825;DHT22;13658;44.534;18.694;2023-05-10T15:00:36;21.40;99.90
25825;DHT22;13658;44.534;18.694;2023-05-10T15:03:02;21.30;99.90
25825;DHT22;13658;44.534;18.694;2023-05-10T15:05:29;21.30;99.90
25825;DHT22;13658;44.534;18.694;2023-05-10T15:07:55;21.30;99.90
25825;DHT22;13658;44.534;18.694;2023-05-10T15:10:21;21.40;99.90
25825;DHT22;13658;44.534;18.694;2023-05-10T15:12:47;21.20;99.90
25825;DHT22;13658;44.534;18.694;2023-05-10T15:15:13;21.10;99.90
25825;DHT22;13658;44.534;18.694;2023-05-10T15:17:40;21.10;99.90
25825;DHT22;13658;44.534;18.694;2023-05-10T15:20:07;21.00;99.90
25825;DHT22;13658;44.534;18.694;2023-05-10T15:22:33;20.90;99.90
25825;DHT22;13658;44.534;18.694;2023-05-10T15:24:59;20.80;99.90
25825;DHT22;13658;44.534;18.694;2023-05-10T15:27:25;20.70;99.90
25825;DHT22;13658;44.534;18.694;2023-05-10T15:29:52;20.60;99.90
25825;DHT22;13658;44.534;18.694;2023-05-10T15:32:18;20.50;99.90
25825;DHT22;13658;44.534;18.694;2023-05-10T15:34:44;20.50;99.90
25825;DHT22;13658;44.534;18.694;2023-05-10T15:37:10;20.50;99.90
25825;DHT22;13658;44.534;18.694;2023-05-10T15:39:36;20.40;99.90
25825;DHT22;13658;44.534;18.694;2023-05-10T15:42:02;20.60;99.90
25825;DHT22;13658;44.534;18.694;2023-05-10T15:44:29;20.60;99.90
25825;DHT22;13658;44.534;18.694;2023-05-10T15:46:55;20.40;99.90
25825;DHT22;13658;44.534;18.694;2023-05-10T15:49:21;20.40;99.90
25825;DHT22;13658;44.534;18.694;2023-05-10T15:51:47;20.40;99.90